createdAt,value
2022-09-21T00:08:34.547Z,8.3
2022-09-21T00:23:44.198Z,5.6
2022-09-21T00:38:53.701Z,9.4
2022-09-21T00:54:03.170Z,9.5
2022-09-21T01:09:12.622Z,9.9
2022-09-21T01:24:22.020Z,6.9
2022-09-21T01:39:31.979Z,7.6
2022-09-21T01:54:41.918Z,9.7
2022-09-21T02:09:51.033Z,8.7
2022-09-21T02:25:00.535Z,9.9
2022-09-21T02:40:10.725Z,7.3
2022-09-21T02:55:20.772Z,11.1
2022-09-21T03:10:30.071Z,8.1
2022-09-21T03:25:39.262Z,9.1
2022-09-21T03:40:48.464Z,10.9
2022-09-21T03:55:57.349Z,10.2
2022-09-21T04:11:07.048Z,11.6
2022-09-21T04:26:16.633Z,8.9
2022-09-21T04:41:26.068Z,10.4
2022-09-21T04:56:35.636Z,11.9
2022-09-21T05:11:44.809Z,13.2
2022-09-21T05:26:54.358Z,14.5
2022-09-21T05:42:03.841Z,15.6
2022-09-21T05:57:13.466Z,9.8
2022-09-21T06:12:22.686Z,11.4
2022-09-21T06:27:32.092Z,10.6
2022-09-21T06:42:41.643Z,13.4
2022-09-21T06:57:53.011Z,16.3
2022-09-21T07:13:02.436Z,15.5
2022-09-21T07:28:11.743Z,15.5
2022-09-21T07:43:21.982Z,18.1
2022-09-21T07:58:31.891Z,11.2
2022-09-21T08:13:41.685Z,10.9
2022-09-21T08:28:52.399Z,13.4
2022-09-21T08:44:02.373Z,9.4
2022-09-21T08:59:12.406Z,15
2022-09-21T09:14:21.972Z,18.8
2022-09-21T09:29:31.528Z,12.6
2022-09-21T09:45:04.990Z,9.8
2022-09-21T10:00:15.125Z,7.3
2022-09-21T10:15:25.235Z,8.5
2022-09-21T10:30:34.533Z,9.6
2022-09-21T10:45:44.415Z,10.2
2022-09-21T11:00:54.417Z,3.4
2022-09-21T11:16:04.262Z,7.9
2022-09-21T11:31:14.637Z,5.2
2022-09-21T11:46:25.212Z,6.4
2022-09-21T12:01:35.465Z,8
2022-09-21T12:16:46.821Z,3.2
2022-09-21T12:31:57.154Z,4.1
2022-09-21T12:47:05.793Z,3.2
2022-09-21T13:02:17.068Z,5.3
2022-09-21T13:17:27.459Z,3.7
2022-09-21T13:32:38.406Z,4.8
2022-09-21T13:47:47.582Z,6.8
2022-09-21T14:02:57.889Z,4.8
2022-09-21T14:18:07.678Z,4.5
2022-09-21T14:33:18.249Z,4.2
2022-09-21T14:48:27.704Z,4.7
2022-09-21T15:03:37.719Z,4.7
2022-09-21T15:21:39.843Z,3.8
2022-09-21T15:36:50.914Z,6.1
2022-09-21T15:51:59.368Z,4.8
2022-09-21T16:07:08.843Z,4.7
2022-09-21T16:22:17.625Z,5.6
2022-09-21T16:37:26.761Z,14.8
2022-09-21T16:52:36.180Z,3.3
2022-09-21T17:07:44.966Z,4.7
2022-09-21T17:22:54.473Z,4
2022-09-21T17:38:03.809Z,7.1
2022-09-21T17:53:13.471Z,6.8
2022-09-21T18:08:22.711Z,15.1
2022-09-21T18:23:31.950Z,10
2022-09-21T18:38:41.061Z,5.7
2022-09-21T18:53:50.166Z,7
2022-09-21T19:08:59.439Z,6.8
2022-09-21T19:24:08.659Z,10.8
2022-09-21T19:39:17.992Z,8.8
2022-09-21T19:54:26.738Z,10.3
2022-09-21T20:09:36.211Z,13.9
2022-09-21T20:24:45.805Z,14.6
2022-09-21T20:39:54.837Z,18.7
2022-09-21T20:55:04.125Z,14.1
2022-09-21T21:10:13.299Z,12.1
2022-09-21T21:25:22.527Z,18.9
2022-09-21T21:40:32.442Z,11.7
2022-09-21T21:55:41.933Z,14.9
2022-09-21T22:10:53.799Z,8.8
2022-09-21T22:26:03.110Z,10.8
2022-09-21T22:41:12.866Z,13.6
2022-09-21T22:56:21.975Z,11.3
2022-09-21T23:11:31.370Z,10.5
2022-09-21T23:26:40.739Z,12.5
2022-09-21T23:41:49.834Z,10.4
2022-09-21T23:56:59.236Z,10.1
